createdAt,value
2022-08-22T00:06:13.740Z,34.1
2022-08-22T00:11:51.288Z,34.1
2022-08-22T00:17:55.431Z,34.1
2022-08-22T00:23:36.922Z,34.1
2022-08-22T00:29:23.522Z,34.1
2022-08-22T00:35:01.515Z,34.1
2022-08-22T00:40:45.483Z,34.1
2022-08-22T00:46:12.420Z,34.1
2022-08-22T00:51:42.269Z,34
2022-08-22T00:57:02.436Z,34
2022-08-22T01:03:09.027Z,33.9
2022-08-22T01:08:59.065Z,33.9
2022-08-22T01:14:35.418Z,33.9
2022-08-22T01:20:12.276Z,33.9
2022-08-22T01:25:42.470Z,33.9
2022-08-22T01:31:29.313Z,33.9
2022-08-22T01:37:11.596Z,33.8
2022-08-22T01:43:06.770Z,33.8
2022-08-22T01:49:37.342Z,33.8
2022-08-22T01:55:12.935Z,33.8
2022-08-22T02:00:35.015Z,33.8
2022-08-22T02:05:57.346Z,33.8
2022-08-22T02:11:30.109Z,33.8
2022-08-22T02:17:08.780Z,33.7
2022-08-22T02:22:34.241Z,33.7
2022-08-22T02:28:20.631Z,33.7
2022-08-22T02:34:07.158Z,33.6
2022-08-22T02:39:48.319Z,33.6
2022-08-22T02:45:30.165Z,33.6
2022-08-22T02:51:09.962Z,33.6
2022-08-22T02:56:34.269Z,33.6
2022-08-22T03:02:31.336Z,33.6
2022-08-22T03:08:17.087Z,33.5
2022-08-22T03:13:39.874Z,33.5
2022-08-22T03:19:02.964Z,33.5
2022-08-22T03:24:39.925Z,33.5
2022-08-22T03:30:56.488Z,33.4
2022-08-22T03:36:17.661Z,33.4
2022-08-22T03:42:10.994Z,33.4
2022-08-22T03:47:31.951Z,33.4
2022-08-22T03:52:53.381Z,33.4
2022-08-22T03:59:00.378Z,33.4
2022-08-22T04:05:12.908Z,33.3
2022-08-22T04:11:19.670Z,33.3
2022-08-22T04:16:58.019Z,33.3
2022-08-22T04:22:36.861Z,33.3
2022-08-22T04:28:09.825Z,33.3
2022-08-22T04:33:37.205Z,33.3
2022-08-22T04:39:15.280Z,33.3
2022-08-22T04:45:21.269Z,33.2
2022-08-22T04:51:15.565Z,33.2
2022-08-22T04:57:00.080Z,33.2
2022-08-22T05:02:42.318Z,33.2
2022-08-22T05:08:44.359Z,33.1
2022-08-22T05:14:28.048Z,33.1
2022-08-22T05:20:04.142Z,33.1
2022-08-22T05:25:52.818Z,33.1
2022-08-22T05:31:40.549Z,33.1
2022-08-22T05:37:25.891Z,33.1
2022-08-22T05:43:05.716Z,33.1
2022-08-22T05:48:42.479Z,33.1
2022-08-22T05:54:31.741Z,33.1
2022-08-22T06:00:14.726Z,33
2022-08-22T06:05:52.644Z,33
2022-08-22T06:11:33.879Z,33
2022-08-22T06:17:26.749Z,33
2022-08-22T06:23:24.918Z,32.9
2022-08-22T06:29:27.157Z,35.3
2022-08-22T06:35:28.011Z,38.8
2022-08-22T06:40:52.793Z,37.1
2022-08-22T06:46:31.231Z,36.2
2022-08-22T06:52:14.355Z,40.4
2022-08-22T06:57:58.388Z,40.6
2022-08-22T07:03:59.313Z,40.6
2022-08-22T07:09:41.969Z,40.4
2022-08-22T07:15:22.139Z,40.5
2022-08-22T07:21:03.396Z,40.4
2022-08-22T07:26:43.862Z,40.5
2022-08-22T07:32:29.450Z,40.6
2022-08-22T07:38:32.031Z,40.8
2022-08-22T07:44:15.071Z,40.9
2022-08-22T07:50:38.891Z,41.1
2022-08-22T07:56:38.742Z,42.3
2022-08-22T08:02:20.534Z,42.7
2022-08-22T08:08:03.299Z,44.3
2022-08-22T08:13:51.207Z,45.3
2022-08-22T08:19:28.338Z,46.4
2022-08-22T08:25:17.488Z,47
2022-08-22T08:31:04.967Z,47.9
2022-08-22T08:37:29.257Z,48.8
2022-08-22T08:43:19.877Z,49.6
2022-08-22T08:49:10.447Z,49
2022-08-22T08:54:58.905Z,49.8
2022-08-22T09:45:47.094Z,52.9
2022-08-22T09:52:05.383Z,53.4
2022-08-22T09:58:13.940Z,53.9
2022-08-22T10:04:13.011Z,53.4
2022-08-22T10:10:29.446Z,53.6
2022-08-22T10:16:36.312Z,54.4
2022-08-22T10:22:08.000Z,54.8
2022-08-22T10:28:02.493Z,55.1
2022-08-22T10:33:56.273Z,55.8
2022-08-22T10:40:00.631Z,55.3
2022-08-22T10:46:12.435Z,55.5
2022-08-22T10:52:31.313Z,56.6
2022-08-22T10:58:26.719Z,57.1
2022-08-22T11:05:01.473Z,57.5
2022-08-22T11:11:00.834Z,58.1
2022-08-22T11:16:58.723Z,58.2
2022-08-22T11:23:29.196Z,59
2022-08-22T11:30:03.833Z,59.5
2022-08-22T11:36:26.108Z,59.3
2022-08-22T11:42:47.321Z,59.1
2022-08-22T11:48:52.032Z,59.9
2022-08-22T11:54:47.962Z,59.4
2022-08-22T12:00:49.368Z,58.6
2022-08-22T12:06:51.178Z,58.1
2022-08-22T12:12:46.375Z,57.7
2022-08-22T12:19:59.047Z,57.4
2022-08-22T12:26:38.534Z,57.6
2022-08-22T12:32:45.710Z,56.9
2022-08-22T12:39:17.598Z,56.9
2022-08-22T12:45:23.227Z,58
2022-08-22T12:51:17.233Z,58.5
2022-08-22T12:57:10.425Z,58.9
2022-08-22T13:03:25.948Z,59.4
2022-08-22T13:09:17.302Z,59.5
2022-08-22T13:15:44.059Z,59.1
2022-08-22T13:22:13.518Z,58.1
2022-08-22T13:28:43.818Z,57.3
2022-08-22T13:34:43.459Z,56.5
2022-08-22T13:40:42.911Z,55.8
2022-08-22T13:46:18.713Z,54.3
2022-08-22T13:53:11.343Z,51.8
2022-08-22T13:59:47.421Z,49.6
2022-08-22T14:06:32.998Z,48.3
2022-08-22T14:12:50.402Z,47.4
2022-08-22T14:18:47.990Z,46.8
2022-08-22T14:25:19.096Z,46.1
2022-08-22T14:31:21.864Z,45.6
2022-08-22T14:37:33.505Z,45.2
2022-08-22T14:43:57.244Z,44.8
2022-08-22T14:50:53.274Z,44.4
2022-08-22T14:56:34.320Z,44.2
2022-08-22T15:02:28.595Z,43.9
2022-08-22T15:08:27.436Z,43.7
2022-08-22T15:14:31.067Z,43.4
2022-08-22T15:20:45.573Z,43.3
2022-08-22T15:26:50.043Z,43.1
2022-08-22T15:32:58.166Z,42.9
2022-08-22T15:38:52.884Z,42.7
2022-08-22T15:45:03.926Z,42.6
2022-08-22T15:51:09.625Z,42.4
2022-08-22T15:57:31.199Z,42.3
2022-08-22T16:03:56.473Z,42.2
2022-08-22T16:09:39.194Z,42
2022-08-22T16:15:21.716Z,41.9
2022-08-22T16:21:09.098Z,41.8
2022-08-22T16:26:49.239Z,41.6
2022-08-22T16:33:05.711Z,41.6
2022-08-22T16:38:44.432Z,41.6
2022-08-22T16:44:11.419Z,41.4
2022-08-22T16:50:11.574Z,41.4
2022-08-22T16:55:48.275Z,41.3
2022-08-22T17:02:20.451Z,41.1
2022-08-22T17:08:00.249Z,41.1
2022-08-22T17:13:43.935Z,40.9
2022-08-22T17:19:34.164Z,40.8
2022-08-22T17:25:37.836Z,40.6
2022-08-22T17:31:03.370Z,40.6
2022-08-22T17:36:43.545Z,40.4
2022-08-22T17:42:25.189Z,40.5
2022-08-22T17:48:27.820Z,40.4
2022-08-22T17:54:05.885Z,39.6
2022-08-22T18:00:24.682Z,36.4
2022-08-22T18:06:14.104Z,33.1
2022-08-22T18:12:33.720Z,31.3
2022-08-22T18:18:05.230Z,30
2022-08-22T18:24:12.977Z,29.3
2022-08-22T18:30:07.497Z,28.8
2022-08-22T18:35:37.359Z,28.4
2022-08-22T18:41:42.507Z,28.2
2022-08-22T18:47:42.756Z,27.9
2022-08-22T18:53:57.518Z,27.8
2022-08-22T18:59:54.552Z,27.6
2022-08-22T19:05:36.436Z,27.5
2022-08-22T19:10:43.450Z,27.4
2022-08-22T19:16:25.286Z,27.4
2022-08-22T19:22:23.601Z,27.3
2022-08-22T19:28:04.209Z,27.3
2022-08-22T19:33:51.662Z,27.1
2022-08-22T19:39:32.470Z,27.1
2022-08-22T19:45:07.698Z,27
2022-08-22T19:50:49.188Z,27
2022-08-22T19:56:30.333Z,26.9
2022-08-22T20:02:21.078Z,26.9
2022-08-22T20:08:41.408Z,26.9
2022-08-22T20:14:08.888Z,26.9
2022-08-22T20:20:45.060Z,26.8
2022-08-22T20:26:31.948Z,26.8
2022-08-22T20:32:22.381Z,26.8
2022-08-22T20:38:56.185Z,26.8
2022-08-22T20:45:29.625Z,26.7
2022-08-22T20:50:49.813Z,26.7
2022-08-22T20:56:33.137Z,26.7
2022-08-22T21:02:20.739Z,26.7
2022-08-22T21:08:02.038Z,26.6
2022-08-22T21:13:44.459Z,26.7
2022-08-22T21:19:23.575Z,26.7
2022-08-22T21:24:35.036Z,26.6
2022-08-22T21:29:58.830Z,26.6
2022-08-22T21:35:53.451Z,26.6
2022-08-22T21:41:05.394Z,26.7
2022-08-22T21:46:44.446Z,26.6
2022-08-22T21:52:36.405Z,26.6
2022-08-22T21:58:22.040Z,26.6
2022-08-22T22:04:58.392Z,26.6
2022-08-22T22:10:44.762Z,26.6
2022-08-22T22:16:21.720Z,26.6
2022-08-22T22:21:58.676Z,26.6
2022-08-22T22:28:09.978Z,26.7
2022-08-22T22:33:47.266Z,26.6
2022-08-22T22:39:30.384Z,26.6
2022-08-22T22:45:19.399Z,26.6
2022-08-22T22:50:40.638Z,26.6
2022-08-22T22:56:16.692Z,26.6
2022-08-22T23:02:32.958Z,26.6
2022-08-22T23:08:09.150Z,26.6
2022-08-22T23:14:07.462Z,26.6
2022-08-22T23:19:52.481Z,26.6
2022-08-22T23:25:30.375Z,26.6
2022-08-22T23:31:06.947Z,26.6
2022-08-22T23:36:49.372Z,26.6
2022-08-22T23:42:31.498Z,26.6
2022-08-22T23:47:55.611Z,26.7
2022-08-22T23:53:20.044Z,26.6
2022-08-22T23:58:53.227Z,26.6
